createdAt,value
2019-02-22T00:02:30.904Z,7.55
2019-02-22T00:05:01.179Z,7.54
2019-02-22T00:07:31.529Z,7.52
2019-02-22T00:10:01.855Z,7.46
2019-02-22T00:12:33.584Z,7.45
2019-02-22T00:15:04.204Z,7.42
2019-02-22T00:17:34.601Z,7.38
2019-02-22T00:20:06.574Z,7.39
2019-02-22T00:22:36.822Z,7.35
2019-02-22T00:25:07.132Z,7.33
2019-02-22T00:27:37.445Z,7.32
2019-02-22T00:30:09.530Z,7.29
2019-02-22T00:32:42.337Z,7.28
2019-02-22T00:35:11.759Z,7.27
2019-02-22T00:37:42.195Z,7.27
2019-02-22T00:40:12.423Z,7.23
2019-02-22T00:42:42.812Z,7.20
2019-02-22T00:45:13.053Z,7.17
2019-02-22T00:47:43.300Z,7.16
2019-02-22T00:50:13.527Z,7.13
2019-02-22T00:52:46.319Z,7.10
2019-02-22T00:55:16.832Z,7.05
2019-02-22T00:57:47.403Z,6.91
2019-02-22T01:00:17.823Z,6.81
2019-02-22T01:02:48.206Z,6.74
2019-02-22T01:05:18.585Z,6.65
2019-02-22T01:07:50.024Z,6.56
2019-02-22T01:10:30.463Z,6.50
2019-02-22T01:12:52.523Z,6.43
2019-02-22T01:15:23.302Z,6.20
2019-02-22T01:17:53.719Z,5.91
2019-02-22T01:20:23.909Z,5.58
2019-02-22T01:22:54.311Z,5.42
2019-02-22T01:25:26.812Z,5.15
2019-02-22T01:27:58.673Z,4.86
2019-02-22T01:30:28.949Z,4.57
2019-02-22T01:32:59.183Z,4.38
2019-02-22T01:35:29.572Z,4.41
2019-02-22T01:37:59.815Z,4.24
2019-02-22T01:40:30.052Z,3.87
2019-02-22T01:43:00.301Z,3.66
2019-02-22T01:45:31.528Z,3.53
2019-02-22T01:48:01.766Z,3.37
2019-02-22T01:50:32.031Z,3.12
2019-02-22T01:53:02.262Z,3.03
2019-02-22T01:55:32.492Z,2.93
2019-02-22T01:58:02.807Z,2.86
2019-02-22T02:00:33.065Z,2.78
2019-02-22T02:03:03.324Z,2.74
2019-02-22T02:05:33.569Z,2.84
2019-02-22T02:08:03.819Z,3.12
2019-02-22T02:11:47.310Z,2.79
2019-02-22T02:14:17.736Z,2.88
2019-02-22T02:16:47.989Z,2.38
2019-02-22T02:19:18.235Z,2.31
2019-02-22T02:21:48.467Z,2.26
2019-02-22T02:24:18.711Z,2.20
2019-02-22T02:26:48.944Z,2.18
2019-02-22T02:29:19.189Z,2.15
2019-02-22T02:31:49.438Z,2.15
2019-02-22T02:34:19.685Z,2.13
2019-02-22T02:36:49.987Z,2.14
2019-02-22T02:39:20.194Z,2.16
2019-02-22T02:41:50.441Z,2.12
2019-02-22T02:44:20.710Z,2.11
2019-02-22T02:46:51.155Z,2.11
2019-02-22T02:49:21.369Z,2.10
2019-02-22T02:51:51.619Z,2.11
2019-02-22T02:54:21.871Z,2.08
2019-02-22T02:56:52.103Z,2.06
2019-02-22T02:59:22.359Z,2.03
2019-02-22T03:01:52.609Z,2.03
2019-02-22T03:04:22.842Z,1.97
2019-02-22T03:06:57.389Z,1.90
2019-02-22T03:09:27.641Z,1.88
2019-02-22T03:11:57.869Z,1.82
2019-02-22T03:14:28.128Z,1.79
2019-02-22T03:16:58.361Z,1.80
2019-02-22T03:19:28.599Z,1.76
2019-02-22T03:21:58.851Z,1.78
2019-02-22T03:24:29.088Z,1.76
2019-02-22T03:26:59.323Z,1.76
2019-02-22T03:29:29.570Z,1.75
2019-02-22T03:31:59.802Z,1.74
2019-02-22T03:34:30.076Z,1.72
2019-02-22T03:37:00.298Z,1.71
2019-02-22T03:39:30.537Z,1.69
2019-02-22T03:42:00.787Z,1.69
2019-02-22T03:44:31.019Z,1.62
2019-02-22T03:47:01.269Z,1.61
2019-02-22T03:49:31.520Z,1.60
2019-02-22T03:52:03.486Z,1.50
2019-02-22T03:54:33.731Z,1.45
2019-02-22T03:57:03.968Z,1.43
2019-02-22T03:59:34.226Z,1.38
2019-02-22T04:02:04.440Z,1.34
2019-02-22T04:04:34.714Z,1.32
2019-02-22T04:07:04.953Z,1.27
2019-02-22T04:09:35.215Z,1.25
2019-02-22T04:12:05.447Z,1.22
2019-02-22T04:14:35.677Z,1.20
2019-02-22T04:17:05.926Z,1.20
2019-02-22T04:19:36.176Z,1.20
2019-02-22T04:22:06.482Z,1.15
2019-02-22T04:24:36.736Z,1.14
2019-02-22T04:27:07.011Z,1.12
2019-02-22T04:29:37.270Z,1.11
2019-02-22T04:32:07.527Z,1.05
2019-02-22T04:34:37.758Z,0.99
2019-02-22T04:37:08.001Z,0.93
2019-02-22T04:39:38.306Z,0.90
2019-02-22T04:42:08.551Z,0.85
2019-02-22T04:44:38.826Z,0.83
2019-02-22T04:47:09.079Z,0.78
2019-02-22T04:49:39.336Z,0.77
2019-02-22T04:52:09.573Z,0.71
2019-02-22T04:54:39.829Z,0.66
2019-02-22T04:57:11.046Z,0.62
2019-02-22T04:59:41.292Z,0.54
2019-02-22T05:02:11.526Z,0.53
2019-02-22T05:04:42.753Z,0.50
2019-02-22T05:07:12.990Z,0.47
2019-02-22T05:09:43.226Z,0.44
2019-02-22T05:12:13.459Z,0.43
2019-02-22T05:14:43.760Z,0.39
2019-02-22T05:17:13.974Z,0.36
2019-02-22T05:19:44.240Z,0.34
2019-02-22T05:22:15.552Z,0.26
2019-02-22T05:24:45.788Z,0.20
2019-02-22T05:27:16.093Z,0.18
2019-02-22T05:29:46.346Z,0.16
2019-02-22T05:32:16.585Z,0.15
2019-02-22T05:34:47.961Z,0.08
2019-02-22T05:37:18.272Z,0.06
2019-02-22T05:39:48.529Z,0.06
2019-02-22T05:42:23.003Z,0.05
2019-02-22T05:44:50.718Z,0.04
2019-02-22T05:47:20.953Z,0.04
2019-02-22T05:49:51.211Z,0.05
2019-02-22T05:52:21.463Z,0.02
2019-02-22T05:54:51.747Z,-0.02
2019-02-22T05:57:22.060Z,-0.07
2019-02-22T05:59:52.316Z,-0.12
2019-02-22T06:02:22.581Z,-0.15
2019-02-22T06:04:53.907Z,-0.18
2019-02-22T06:07:24.165Z,-0.15
2019-02-22T06:09:54.413Z,-0.16
2019-02-22T06:12:34.249Z,-0.15
2019-02-22T06:14:56.631Z,-0.21
2019-02-22T06:17:26.912Z,-0.25
2019-02-22T06:19:57.210Z,-0.26
2019-02-22T06:22:29.903Z,-0.32
2019-02-22T06:24:59.659Z,-0.34
2019-02-22T06:27:29.921Z,-0.37
2019-02-22T06:30:00.353Z,-0.39
2019-02-22T06:32:30.592Z,-0.42
2019-02-22T06:35:00.853Z,-0.46
2019-02-22T06:37:31.112Z,-0.49
2019-02-22T06:40:01.360Z,-0.39
2019-02-22T06:42:31.610Z,-0.32
2019-02-22T06:45:01.865Z,-0.27
2019-02-22T06:47:32.106Z,-0.26
2019-02-22T06:50:02.351Z,-0.28
2019-02-22T06:52:32.655Z,-0.32
2019-02-22T06:55:02.919Z,-0.42
2019-02-22T06:57:33.183Z,-0.43
2019-02-22T07:00:06.114Z,-0.43
2019-02-22T07:02:36.463Z,-0.54
2019-02-22T07:05:08.020Z,-0.59
2019-02-22T07:07:39.362Z,-0.59
2019-02-22T07:10:10.672Z,-0.61
2019-02-22T07:12:42.553Z,-0.69
2019-02-22T07:15:12.812Z,-0.68
2019-02-22T07:17:43.067Z,-0.69
2019-02-22T07:20:14.855Z,-0.71
2019-02-22T07:22:45.117Z,-0.89
2019-02-22T07:25:15.359Z,-0.94
2019-02-22T07:27:46.639Z,-0.96
2019-02-22T07:30:16.960Z,-0.98
2019-02-22T07:32:47.231Z,-0.93
2019-02-22T07:35:17.438Z,-0.97
2019-02-22T07:37:47.706Z,-0.91
2019-02-22T07:40:20.001Z,-0.96
2019-02-22T07:42:49.882Z,-0.93
2019-02-22T07:45:20.157Z,-0.82
2019-02-22T07:47:50.379Z,-0.23
2019-02-22T07:50:20.624Z,-0.57
2019-02-22T07:52:51.025Z,0.22
2019-02-22T07:55:21.263Z,0.91
2019-02-22T07:57:51.671Z,1.41
2019-02-22T08:00:21.918Z,0.97
2019-02-22T08:02:52.157Z,0.37
2019-02-22T08:05:22.404Z,-0.30
2019-02-22T08:07:52.661Z,-0.59
2019-02-22T08:10:22.931Z,-0.23
2019-02-22T08:12:53.218Z,0.44
2019-02-22T08:15:23.586Z,0.21
2019-02-22T08:17:53.923Z,-0.10
2019-02-22T08:20:25.513Z,1.66
2019-02-22T08:22:55.830Z,2.37
2019-02-22T08:25:27.260Z,2.31
2019-02-22T08:27:57.521Z,1.50
2019-02-22T08:30:27.861Z,1.73
2019-02-22T08:32:58.124Z,2.02
2019-02-22T08:35:28.385Z,2.10
2019-02-22T08:37:58.626Z,1.91
2019-02-22T08:41:02.454Z,2.37
2019-02-22T08:43:32.766Z,2.61
2019-02-22T08:46:03.163Z,2.23
2019-02-22T08:48:33.417Z,1.58
2019-02-22T08:51:03.685Z,2.35
2019-02-22T08:53:33.967Z,1.74
2019-02-22T08:56:04.243Z,1.75
2019-02-22T08:58:34.522Z,2.39
2019-02-22T09:01:06.359Z,2.95
2019-02-22T09:03:36.887Z,2.71
2019-02-22T09:06:07.137Z,2.80
2019-02-22T09:08:37.387Z,2.78
2019-02-22T09:11:07.730Z,2.28
2019-02-22T09:13:43.566Z,2.34
2019-02-22T09:16:09.982Z,2.69
2019-02-22T09:18:43.000Z,2.90
2019-02-22T09:21:13.265Z,2.40
2019-02-22T09:23:43.603Z,2.17
2019-02-22T09:26:16.475Z,2.28
2019-02-22T09:28:46.716Z,1.77
2019-02-22T09:31:17.401Z,2.12
2019-02-22T09:33:47.610Z,1.50
2019-02-22T09:36:18.950Z,2.37
2019-02-22T09:38:49.210Z,2.51
2019-02-22T09:41:19.484Z,3.28
2019-02-22T09:43:54.984Z,2.69
2019-02-22T09:46:21.957Z,2.70
2019-02-22T09:48:52.194Z,2.72
2019-02-22T09:51:22.466Z,2.71
2019-02-22T09:53:52.713Z,2.91
2019-02-22T09:56:22.963Z,2.74
2019-02-22T09:58:53.223Z,3.27
2019-02-22T10:01:23.481Z,3.24
2019-02-22T10:03:53.753Z,3.28
2019-02-22T10:06:24.008Z,3.26
2019-02-22T10:08:54.260Z,3.65
2019-02-22T10:11:24.532Z,2.96
2019-02-22T10:14:06.025Z,3.14
2019-02-22T10:16:27.633Z,3.28
2019-02-22T10:18:57.977Z,2.97
2019-02-22T10:21:28.261Z,3.71
2019-02-22T10:23:58.492Z,4.01
2019-02-22T10:26:29.269Z,3.92
2019-02-22T10:28:59.571Z,3.83
2019-02-22T10:31:30.108Z,4.58
2019-02-22T10:34:00.363Z,3.40
2019-02-22T10:36:30.613Z,3.26
2019-02-22T10:39:00.914Z,3.23
2019-02-22T10:41:32.800Z,3.01
2019-02-22T10:44:03.128Z,3.27
2019-02-22T10:46:33.414Z,3.23
2019-02-22T10:49:06.885Z,3.44
2019-02-22T10:51:37.176Z,3.09
2019-02-22T10:54:07.464Z,3.80
2019-02-22T10:56:39.308Z,3.26
2019-02-22T10:59:10.838Z,3.32
2019-02-22T11:01:41.157Z,3.53
2019-02-22T11:04:11.373Z,3.83
2019-02-22T11:06:41.660Z,3.11
2019-02-22T11:09:12.000Z,3.58
2019-02-22T11:11:42.332Z,3.36
2019-02-22T11:14:14.210Z,3.15
2019-02-22T11:16:46.359Z,3.28
2019-02-22T11:19:16.612Z,3.17
2019-02-22T11:21:48.401Z,3.68
2019-02-22T11:24:20.052Z,3.53
2019-02-22T11:26:50.512Z,3.90
2019-02-22T11:29:20.784Z,3.45
2019-02-22T11:31:51.059Z,3.73
2019-02-22T11:34:21.308Z,3.28
2019-02-22T11:36:51.788Z,3.15
2019-02-22T11:39:22.145Z,3.40
2019-02-22T11:41:52.412Z,3.62
2019-02-22T11:44:22.734Z,3.80
2019-02-22T11:46:53.008Z,3.06
2019-02-22T11:49:23.258Z,2.85
2019-02-22T11:51:55.920Z,3.50
2019-02-22T11:54:26.787Z,3.36
2019-02-22T11:56:58.743Z,2.56
2019-02-22T11:59:28.994Z,2.19
2019-02-22T12:01:59.911Z,1.58
2019-02-22T12:04:30.806Z,1.37
2019-02-22T12:07:01.700Z,1.44
2019-02-22T12:09:34.095Z,1.32
2019-02-22T12:12:04.339Z,0.88
2019-02-22T12:14:39.270Z,0.95
2019-02-22T12:17:09.732Z,0.98
2019-02-22T12:19:40.008Z,0.95
2019-02-22T12:22:10.279Z,1.06
2019-02-22T12:24:40.526Z,0.80
2019-02-22T12:27:10.810Z,0.78
2019-02-22T12:29:41.063Z,0.82
2019-02-22T12:32:11.424Z,0.98
2019-02-22T12:34:41.672Z,0.74
2019-02-22T12:37:12.006Z,0.78
2019-02-22T12:39:42.719Z,0.72
2019-02-22T12:42:13.193Z,0.68
2019-02-22T12:44:43.505Z,0.75
2019-02-22T12:47:13.798Z,0.74
2019-02-22T12:49:46.406Z,0.87
2019-02-22T12:52:16.531Z,0.64
2019-02-22T12:54:46.792Z,0.73
2019-02-22T12:57:17.066Z,0.63
2019-02-22T12:59:47.301Z,0.73
2019-02-22T13:02:17.562Z,0.60
2019-02-22T13:04:48.056Z,0.75
2019-02-22T13:07:18.443Z,0.71
2019-02-22T13:09:49.485Z,0.69
2019-02-22T13:12:19.805Z,0.52
2019-02-22T13:14:50.033Z,0.60
2019-02-22T13:17:30.533Z,0.91
2019-02-22T13:19:52.243Z,0.88
2019-02-22T13:22:22.531Z,0.91
2019-02-22T13:24:53.747Z,1.06
2019-02-22T13:27:24.008Z,1.11
2019-02-22T13:29:54.273Z,0.87
2019-02-22T13:32:24.546Z,0.78
2019-02-22T13:34:54.782Z,0.83
2019-02-22T13:37:25.563Z,0.63
2019-02-22T13:39:57.516Z,0.86
2019-02-22T13:42:27.790Z,0.91
2019-02-22T13:44:58.059Z,0.79
2019-02-22T13:47:28.333Z,0.53
2019-02-22T13:49:59.074Z,0.64
2019-02-22T13:52:29.316Z,0.68
2019-02-22T13:54:59.866Z,0.83
2019-02-22T13:57:30.522Z,0.80
2019-02-22T14:00:01.031Z,0.64
2019-02-22T14:02:34.012Z,0.76
2019-02-22T14:05:06.016Z,0.62
2019-02-22T14:07:37.323Z,0.69
2019-02-22T14:10:08.435Z,0.80
2019-02-22T14:12:39.071Z,0.80
2019-02-22T14:15:09.431Z,0.81
2019-02-22T14:17:45.543Z,0.74
2019-02-22T14:20:14.785Z,0.51
2019-02-22T14:22:58.895Z,0.49
2019-02-22T14:25:35.756Z,0.49
2019-02-22T14:28:12.223Z,0.45
2019-02-22T14:30:51.960Z,0.49
2019-02-22T14:33:45.139Z,0.47
2019-02-22T14:36:19.527Z,0.43
2019-02-22T14:38:59.045Z,0.44
2019-02-22T14:41:29.309Z,0.37
2019-02-22T14:44:00.827Z,0.47
2019-02-22T14:46:47.158Z,0.38
2019-02-22T14:49:22.771Z,0.47
2019-02-22T14:51:53.436Z,0.43
2019-02-22T14:54:24.506Z,0.32
2019-02-22T14:56:56.723Z,0.34
2019-02-22T14:59:27.553Z,0.21
2019-02-22T15:01:57.846Z,0.16
2019-02-22T15:04:28.253Z,0.12
2019-02-22T15:06:58.567Z,0.10
2019-02-22T15:09:28.845Z,0.15
2019-02-22T15:11:59.970Z,-0.01
2019-02-22T15:14:30.224Z,-0.01
2019-02-22T15:17:17.306Z,0.03
2019-02-22T15:19:49.630Z,-0.02
2019-02-22T15:22:20.196Z,-0.04
2019-02-22T15:24:53.355Z,-0.12
2019-02-22T15:27:22.752Z,-0.14
2019-02-22T15:29:53.228Z,-0.17
2019-02-22T15:32:23.479Z,-0.22
2019-02-22T15:34:55.295Z,-0.24
2019-02-22T15:37:25.733Z,-0.30
2019-02-22T15:39:56.030Z,-0.35
2019-02-22T15:42:26.258Z,-0.39
2019-02-22T15:44:56.527Z,-0.46
2019-02-22T15:47:26.958Z,-0.51
2019-02-22T15:49:57.187Z,-0.51
2019-02-22T15:52:30.091Z,-0.55
2019-02-22T15:55:01.437Z,-0.64
2019-02-22T15:57:32.763Z,-0.67
2019-02-22T16:00:03.482Z,-0.73
2019-02-22T16:02:35.842Z,-0.80
2019-02-22T16:05:11.132Z,-0.82
2019-02-22T16:07:44.974Z,-0.91
2019-02-22T16:10:14.321Z,-0.91
2019-02-22T16:12:45.622Z,-0.89
2019-02-22T16:15:16.623Z,-0.99
2019-02-22T16:17:46.915Z,-1.06
2019-02-22T16:20:17.165Z,-1.14
2019-02-22T16:22:47.476Z,-1.12
2019-02-22T16:25:19.842Z,-1.21
2019-02-22T16:27:50.952Z,-1.22
2019-02-22T16:30:23.026Z,-1.31
2019-02-22T16:32:53.407Z,-1.31
2019-02-22T16:35:23.644Z,-1.36
2019-02-22T16:37:53.903Z,-1.42
2019-02-22T16:40:24.308Z,-1.49
2019-02-22T16:42:56.519Z,-1.55
2019-02-22T16:45:26.759Z,-1.61
2019-02-22T16:47:57.002Z,-1.67
2019-02-22T16:50:27.399Z,-1.77
2019-02-22T16:52:57.864Z,-1.86
2019-02-22T16:55:29.085Z,-1.87
2019-02-22T16:57:59.646Z,-1.90
2019-02-22T17:00:29.921Z,-1.94
2019-02-22T17:03:01.196Z,-1.87
2019-02-22T17:05:32.367Z,-1.87
2019-02-22T17:08:03.377Z,-1.82
2019-02-22T17:10:33.935Z,-1.90
2019-02-22T17:13:11.724Z,-1.99
2019-02-22T17:15:45.038Z,-2.10
2019-02-22T17:18:15.556Z,-2.19
2019-02-22T17:23:57.892Z,-2.29
2019-02-22T17:26:30.436Z,-2.32
2019-02-22T17:29:00.951Z,-2.24
2019-02-22T17:31:32.875Z,-2.29
2019-02-22T17:34:03.488Z,-2.29
2019-02-22T17:36:35.975Z,-2.30
2019-02-22T17:39:07.807Z,-2.32
2019-02-22T17:41:39.006Z,-2.29
2019-02-22T17:44:09.456Z,-2.40
2019-02-22T17:46:39.847Z,-2.52
2019-02-22T17:49:11.736Z,-2.55
2019-02-22T17:51:41.991Z,-2.64
2019-02-22T17:54:13.942Z,-2.62
2019-02-22T17:56:44.498Z,-2.78
2019-02-22T17:59:15.116Z,-2.83
2019-02-22T18:01:45.800Z,-2.85
2019-02-22T18:04:21.202Z,-2.88
2019-02-22T18:06:52.681Z,-2.89
2019-02-22T18:09:23.110Z,-2.92
2019-02-22T18:11:53.375Z,-3.01
2019-02-22T18:14:25.451Z,-3.04
2019-02-22T18:17:07.758Z,-3.03
2019-02-22T18:19:31.901Z,-3.07
2019-02-22T18:22:02.586Z,-3.16
2019-02-22T18:24:34.603Z,-3.10
2019-02-22T18:31:24.074Z,-3.12
2019-02-22T18:33:54.531Z,-3.03
2019-02-22T18:36:24.911Z,-3.05
2019-02-22T18:38:55.504Z,-3.12
2019-02-22T18:41:26.243Z,-3.14
2019-02-22T18:43:57.442Z,-3.11
2019-02-22T18:46:27.991Z,-3.21
2019-02-22T18:49:01.104Z,-3.24
2019-02-22T18:51:32.091Z,-3.25
2019-02-22T18:54:02.967Z,-3.24
2019-02-22T18:56:35.090Z,-3.27
2019-02-22T18:59:05.667Z,-3.30
2019-02-22T19:01:37.686Z,-3.32
2019-02-22T19:04:09.042Z,-3.34
2019-02-22T19:06:39.848Z,-3.38
2019-02-22T19:09:10.555Z,-3.44
2019-02-22T19:11:41.021Z,-3.47
2019-02-22T19:14:12.269Z,-3.52
2019-02-22T19:16:45.420Z,-3.48
2019-02-22T19:19:18.694Z,-3.52
2019-02-22T19:21:48.981Z,-3.54
2019-02-22T19:24:19.418Z,-3.56
2019-02-22T19:26:53.125Z,-3.60
2019-02-22T19:29:49.064Z,-3.63
2019-02-22T19:32:19.398Z,-3.72
2019-02-22T19:34:49.959Z,-3.75
2019-02-22T19:37:20.727Z,-3.69
2019-02-22T19:39:52.035Z,-3.62
2019-02-22T19:42:22.331Z,-3.56
2019-02-22T19:44:57.632Z,-3.53
2019-02-22T19:47:28.616Z,-3.56
2019-02-22T19:50:10.197Z,-3.50
2019-02-22T19:56:07.280Z,-3.62
2019-02-22T19:58:48.418Z,-3.84
2019-02-22T20:06:04.312Z,-3.99
2019-02-22T20:09:11.818Z,-4.01
2019-02-22T20:11:44.514Z,-4.06
2019-02-22T20:14:16.193Z,-4.13
2019-02-22T20:16:53.532Z,-4.22
2019-02-22T20:19:24.415Z,-4.29
2019-02-22T20:26:35.896Z,-4.35
2019-02-22T20:29:11.535Z,-4.44
2019-02-22T20:31:42.163Z,-4.50
2019-02-22T20:34:56.657Z,-4.52
2019-02-22T20:38:10.854Z,-4.50
2019-02-22T20:44:59.632Z,-4.63
2019-02-22T20:47:30.369Z,-4.65
2019-02-22T20:50:00.714Z,-4.61
2019-02-22T20:52:31.221Z,-4.46
2019-02-22T20:55:01.534Z,-4.41
2019-02-22T20:57:34.903Z,-4.41
2019-02-22T21:00:17.153Z,-4.44
2019-02-22T21:02:47.522Z,-4.45
2019-02-22T21:05:17.874Z,-4.45
2019-02-22T21:07:49.939Z,-4.42
2019-02-22T21:10:34.156Z,-4.44
2019-02-22T21:13:29.713Z,-4.49
2019-02-22T21:16:00.069Z,-4.46
2019-02-22T21:18:32.106Z,-4.49
2019-02-22T21:21:02.380Z,-4.50
2019-02-22T21:23:46.426Z,-4.58
2019-02-22T21:37:56.807Z,-4.85
2019-02-22T21:40:28.325Z,-5.05
2019-02-22T21:42:59.187Z,-5.11
2019-02-22T21:49:24.070Z,-5.07
2019-02-22T21:51:54.173Z,-5.06
2019-02-22T21:54:25.395Z,-5.19
2019-02-22T21:56:55.602Z,-5.27
2019-02-22T21:59:32.152Z,-5.27
2019-02-22T22:06:21.603Z,-5.25
2019-02-22T22:08:52.138Z,-5.35
2019-02-22T22:11:23.203Z,-5.38
2019-02-22T22:13:53.579Z,-5.42
2019-02-22T22:16:24.691Z,-5.42
2019-02-22T22:18:55.125Z,-5.34
2019-02-22T22:21:27.010Z,-5.38
2019-02-22T22:23:57.296Z,-5.34
2019-02-22T22:26:27.580Z,-5.31
2019-02-22T22:29:01.199Z,-5.34
2019-02-22T22:31:32.900Z,-5.39
2019-02-22T22:34:03.120Z,-5.46
2019-02-22T22:36:33.383Z,-5.47
2019-02-22T22:39:42.381Z,-5.50
2019-02-22T22:42:12.679Z,-5.51
2019-02-22T22:44:42.954Z,-5.48
2019-02-22T22:47:13.252Z,-5.42
2019-02-22T22:49:43.541Z,-5.43
2019-02-22T22:52:14.424Z,-5.37
2019-02-22T22:54:44.728Z,-5.38
2019-02-22T22:57:14.976Z,-5.38
2019-02-22T22:59:45.319Z,-5.40
2019-02-22T23:02:15.654Z,-5.45
2019-02-22T23:04:45.920Z,-5.53
2019-02-22T23:07:16.185Z,-5.56
2019-02-22T23:09:46.458Z,-5.64
2019-02-22T23:12:16.821Z,-5.69
2019-02-22T23:14:48.089Z,-5.77
2019-02-22T23:17:18.532Z,-5.74
2019-02-22T23:19:48.884Z,-5.68
2019-02-22T23:22:19.229Z,-5.67
2019-02-22T23:24:50.834Z,-5.63
2019-02-22T23:27:21.262Z,-5.61
2019-02-22T23:29:51.751Z,-5.61
2019-02-22T23:33:05.785Z,-5.64
2019-02-22T23:35:36.277Z,-5.68
2019-02-22T23:38:06.632Z,-5.91
2019-02-22T23:40:36.928Z,-5.98
2019-02-22T23:43:07.224Z,-5.90
2019-02-22T23:45:37.621Z,-5.93
2019-02-22T23:48:07.950Z,-6.03
2019-02-22T23:50:38.217Z,-6.08
2019-02-22T23:53:08.789Z,-6.14
2019-02-22T23:55:56.760Z,-6.18
2019-02-22T23:58:27.022Z,-6.23
